createdAt,value
2019-04-06T00:01:43.987Z,94.70
2019-04-06T00:04:19.408Z,94.70
2019-04-06T00:06:55.775Z,95.00
2019-04-06T00:09:31.043Z,94.70
2019-04-06T00:12:06.439Z,94.60
2019-04-06T00:14:43.305Z,94.80
2019-04-06T00:17:18.660Z,94.80
2019-04-06T00:19:53.908Z,94.70
2019-04-06T00:22:29.399Z,94.80
2019-04-06T00:25:04.696Z,94.70
2019-04-06T00:27:40.059Z,94.80
2019-04-06T00:30:15.464Z,95.00
2019-04-06T00:32:57.958Z,94.70
2019-04-06T00:35:33.422Z,94.90
2019-04-06T00:38:08.830Z,94.90
2019-04-06T00:40:44.105Z,95.20
2019-04-06T00:43:19.362Z,95.10
2019-04-06T00:45:54.732Z,95.00
2019-04-06T00:48:30.032Z,95.10
2019-04-06T00:51:05.300Z,95.10
2019-04-06T00:53:41.246Z,95.00
2019-04-06T00:56:16.462Z,95.20
2019-04-06T00:58:51.860Z,95.40
2019-04-06T01:01:27.113Z,95.20
2019-04-06T01:04:02.405Z,95.60
2019-04-06T01:06:37.700Z,95.70
2019-04-06T01:09:13.139Z,95.30
2019-04-06T01:11:48.418Z,95.40
2019-04-06T01:14:23.715Z,95.50
2019-04-06T01:16:58.971Z,95.40
2019-04-06T01:19:34.281Z,95.30
2019-04-06T01:22:09.752Z,95.40
2019-04-06T01:24:45.017Z,95.50
2019-04-06T01:27:20.311Z,95.60
2019-04-06T01:29:55.931Z,95.70
2019-04-06T01:32:31.198Z,95.60
2019-04-06T01:35:06.501Z,95.70
2019-04-06T01:37:42.177Z,95.80
2019-04-06T01:40:17.455Z,95.60
2019-04-06T01:42:52.721Z,95.70
2019-04-06T01:45:28.237Z,95.90
2019-04-06T01:48:03.502Z,95.60
2019-04-06T01:50:38.941Z,95.70
2019-04-06T01:53:14.233Z,95.90
2019-04-06T01:55:49.556Z,95.90
2019-04-06T01:58:24.827Z,96.00
2019-04-06T02:01:22.120Z,96.20
2019-04-06T02:03:57.384Z,96.20
2019-04-06T02:06:32.674Z,96.20
2019-04-06T02:09:07.978Z,96.30
2019-04-06T02:11:43.341Z,96.30
2019-04-06T02:14:18.565Z,96.10
2019-04-06T02:16:53.841Z,96.10
2019-04-06T02:19:29.067Z,96.10
2019-04-06T02:22:04.335Z,96.10
2019-04-06T02:24:39.681Z,96.10
2019-04-06T02:27:15.209Z,96.30
2019-04-06T02:30:09.382Z,96.20
2019-04-06T02:33:15.610Z,96.20
2019-04-06T02:36:15.770Z,96.30
2019-04-06T02:39:01.828Z,96.20
2019-04-06T02:41:54.651Z,96.40
2019-04-06T02:44:29.907Z,96.50
2019-04-06T02:47:05.211Z,96.50
2019-04-06T02:49:40.692Z,96.50
2019-04-06T02:52:16.012Z,96.60
2019-04-06T02:54:53.418Z,96.40
2019-04-06T02:57:28.758Z,96.40
2019-04-06T03:00:04.221Z,96.50
2019-04-06T03:02:39.502Z,96.50
2019-04-06T03:05:14.771Z,96.40
2019-04-06T03:07:50.053Z,96.40
2019-04-06T03:10:25.535Z,96.40
2019-04-06T03:13:01.734Z,96.30
2019-04-06T03:15:41.445Z,96.50
2019-04-06T03:18:18.378Z,96.70
2019-04-06T03:20:53.650Z,96.60
2019-04-06T03:23:29.855Z,96.60
2019-04-06T03:26:05.379Z,96.60
2019-04-06T03:28:40.661Z,96.50
2019-04-06T03:31:22.807Z,96.50
2019-04-06T03:33:54.595Z,96.50
2019-04-06T03:36:29.851Z,96.60
2019-04-06T03:39:06.734Z,96.60
2019-04-06T03:41:42.015Z,96.70
2019-04-06T03:44:17.270Z,96.70
2019-04-06T03:46:52.648Z,96.70
2019-04-06T03:49:27.847Z,96.70
2019-04-06T03:52:03.100Z,96.80
2019-04-06T03:54:38.468Z,96.70
2019-04-06T03:57:16.811Z,96.90
2019-04-06T03:59:50.478Z,96.90
2019-04-06T04:02:25.681Z,96.90
2019-04-06T04:05:01.211Z,96.90
2019-04-06T04:07:37.482Z,96.90
2019-04-06T04:10:22.727Z,97.10
2019-04-06T04:12:58.229Z,97.10
2019-04-06T04:15:33.684Z,97.20
2019-04-06T04:18:09.197Z,97.10
2019-04-06T04:20:44.394Z,97.10
2019-04-06T04:23:19.626Z,97.10
2019-04-06T04:25:54.788Z,97.20
2019-04-06T04:28:30.097Z,97.10
2019-04-06T04:31:05.386Z,97.20
2019-04-06T04:33:40.643Z,97.20
2019-04-06T04:36:15.842Z,97.30
2019-04-06T04:38:51.081Z,97.20
2019-04-06T04:41:26.329Z,97.20
2019-04-06T04:44:01.787Z,97.30
2019-04-06T04:46:37.030Z,97.50
2019-04-06T04:49:12.255Z,97.50
2019-04-06T04:51:47.687Z,97.50
2019-04-06T04:54:22.856Z,97.50
2019-04-06T04:56:58.277Z,97.50
2019-04-06T04:59:33.501Z,97.60
2019-04-06T05:02:08.663Z,97.60
2019-04-06T05:04:44.035Z,97.60
2019-04-06T05:07:19.167Z,97.50
2019-04-06T05:09:54.560Z,97.70
2019-04-06T05:12:29.765Z,97.60
2019-04-06T05:15:06.232Z,97.60
2019-04-06T05:17:46.422Z,97.70
2019-04-06T05:20:23.849Z,97.80
2019-04-06T05:22:58.824Z,97.60
2019-04-06T05:25:34.039Z,97.70
2019-04-06T05:28:09.222Z,97.60
2019-04-06T05:30:46.032Z,97.60
2019-04-06T05:33:21.258Z,97.80
2019-04-06T05:35:56.546Z,97.70
2019-04-06T05:38:31.725Z,97.60
2019-04-06T05:41:06.956Z,97.50
2019-04-06T05:43:42.222Z,97.60
2019-04-06T05:46:17.418Z,97.30
2019-04-06T05:48:52.599Z,97.40
2019-04-06T05:51:27.815Z,97.50
2019-04-06T05:54:03.057Z,97.30
2019-04-06T05:56:38.289Z,97.50
2019-04-06T05:59:13.819Z,97.40
2019-04-06T06:02:11.848Z,97.30
2019-04-06T06:04:47.139Z,97.30
2019-04-06T06:07:22.504Z,97.20
2019-04-06T06:09:57.665Z,97.30
2019-04-06T06:12:32.888Z,97.00
2019-04-06T06:15:08.131Z,97.00
2019-04-06T06:17:43.423Z,97.00
2019-04-06T06:20:18.663Z,96.80
2019-04-06T06:22:53.871Z,96.90
2019-04-06T06:25:29.414Z,96.60
2019-04-06T06:28:13.894Z,96.80
2019-04-06T06:30:42.026Z,96.60
2019-04-06T06:33:17.236Z,96.50
2019-04-06T06:35:52.396Z,96.30
2019-04-06T06:38:27.614Z,96.50
2019-04-06T06:41:02.808Z,96.30
2019-04-06T06:43:38.176Z,96.40
2019-04-06T06:46:13.482Z,96.30
2019-04-06T06:48:48.609Z,96.20
2019-04-06T06:51:23.878Z,95.70
2019-04-06T06:53:59.129Z,95.80
2019-04-06T06:56:34.454Z,95.50
2019-04-06T06:59:09.639Z,95.40
2019-04-06T07:01:44.862Z,95.40
2019-04-06T07:04:20.132Z,95.40
2019-04-06T07:06:55.322Z,95.20
2019-04-06T07:09:31.516Z,94.90
2019-04-06T07:12:10.964Z,94.80
2019-04-06T07:14:47.917Z,94.60
2019-04-06T07:17:23.308Z,94.70
2019-04-06T07:19:58.643Z,94.40
2019-04-06T07:22:34.360Z,94.80
2019-04-06T07:25:09.592Z,94.70
2019-04-06T07:27:44.812Z,94.10
2019-04-06T07:30:20.294Z,93.90
2019-04-06T07:32:55.645Z,93.60
2019-04-06T07:35:31.062Z,93.30
2019-04-06T07:38:06.364Z,93.20
2019-04-06T07:40:42.535Z,92.90
2019-04-06T07:43:17.759Z,92.90
2019-04-06T07:45:52.978Z,92.50
2019-04-06T07:48:28.163Z,92.40
2019-04-06T07:51:03.412Z,92.50
2019-04-06T07:53:38.869Z,92.10
2019-04-06T07:56:14.089Z,91.80
2019-04-06T07:58:50.287Z,91.20
2019-04-06T08:01:35.115Z,91.30
2019-04-06T08:04:10.351Z,91.00
2019-04-06T08:06:48.227Z,90.90
2019-04-06T08:09:23.480Z,91.20
2019-04-06T08:12:03.819Z,91.10
2019-04-06T08:14:39.259Z,90.90
2019-04-06T08:17:14.512Z,90.80
2019-04-06T08:19:49.700Z,90.90
2019-04-06T08:22:28.561Z,90.60
2019-04-06T08:25:05.411Z,90.80
2019-04-06T08:27:40.609Z,90.30
2019-04-06T08:30:15.811Z,90.40
2019-04-06T08:32:51.115Z,88.80
2019-04-06T08:35:26.927Z,90.00
2019-04-06T08:38:02.122Z,89.50
2019-04-06T08:40:37.383Z,89.10
2019-04-06T08:43:12.696Z,89.00
2019-04-06T08:45:47.895Z,88.80
2019-04-06T08:48:23.235Z,88.70
2019-04-06T08:50:58.465Z,88.10
2019-04-06T08:53:33.743Z,88.60
2019-04-06T08:56:08.980Z,87.00
2019-04-06T08:58:44.197Z,86.80
2019-04-06T09:01:19.359Z,86.70
2019-04-06T09:03:54.716Z,85.00
2019-04-06T09:06:29.913Z,83.50
2019-04-06T09:09:06.437Z,84.60
2019-04-06T09:11:41.553Z,83.70
2019-04-06T09:14:16.725Z,82.90
2019-04-06T09:16:52.144Z,82.90
2019-04-06T09:19:27.443Z,82.60
2019-04-06T09:22:02.741Z,80.30
2019-04-06T09:24:46.118Z,81.70
2019-04-06T09:27:20.909Z,82.80
2019-04-06T09:29:56.349Z,79.40
2019-04-06T09:32:31.672Z,80.20
2019-04-06T09:35:12.189Z,76.30
2019-04-06T09:37:50.878Z,75.20
2019-04-06T09:40:27.915Z,77.80
2019-04-06T09:43:11.948Z,77.60
2019-04-06T09:46:09.857Z,79.10
2019-04-06T09:49:07.042Z,75.40
2019-04-06T09:52:16.621Z,74.40
2019-04-06T09:54:57.925Z,71.80
2019-04-06T09:58:07.270Z,70.50
2019-04-06T10:01:10.674Z,69.80
2019-04-06T10:04:04.809Z,69.80
2019-04-06T10:07:02.239Z,67.60
2019-04-06T10:10:00.281Z,66.40
2019-04-06T10:12:45.512Z,68.20
2019-04-06T10:15:38.414Z,66.60
2019-04-06T10:18:23.626Z,67.70
2019-04-06T10:21:06.508Z,65.00
2019-04-06T10:24:06.494Z,64.90
2019-04-06T10:27:12.938Z,63.80
2019-04-06T10:30:07.323Z,66.50
2019-04-06T10:32:52.017Z,71.40
2019-04-06T10:35:58.584Z,67.70
2019-04-06T10:39:07.003Z,67.40
2019-04-06T10:42:00.373Z,62.00
2019-04-06T10:45:03.757Z,63.50
2019-04-06T10:48:03.849Z,62.00
2019-04-06T10:50:47.247Z,63.20
2019-04-06T10:53:40.726Z,61.80
2019-04-06T10:56:33.250Z,63.00
2019-04-06T10:59:33.190Z,61.10
2019-04-06T11:02:27.742Z,61.00
2019-04-06T11:05:23.896Z,62.90
2019-04-06T11:08:17.538Z,61.40
2019-04-06T11:11:20.800Z,60.40
2019-04-06T11:14:23.938Z,60.60
2019-04-06T11:17:24.342Z,63.20
2019-04-06T11:20:36.485Z,62.70
2019-04-06T11:23:39.240Z,62.00
2019-04-06T11:26:42.188Z,62.00
2019-04-06T11:29:34.891Z,57.20
2019-04-06T11:32:15.812Z,59.70
2019-04-06T11:35:06.956Z,59.50
2019-04-06T11:38:16.079Z,60.90
2019-04-06T11:41:13.883Z,57.90
2019-04-06T11:44:12.008Z,55.60
2019-04-06T11:47:10.280Z,57.10
2019-04-06T11:50:07.279Z,57.00
2019-04-06T11:53:04.405Z,58.20
2019-04-06T11:56:16.743Z,57.40
2019-04-06T11:59:10.889Z,57.10
2019-04-06T12:02:05.013Z,60.20
2019-04-06T12:05:04.920Z,57.30
2019-04-06T12:08:05.338Z,55.90
2019-04-06T12:11:03.992Z,56.00
2019-04-06T12:13:57.755Z,58.00
2019-04-06T12:16:42.355Z,56.30
2019-04-06T12:19:35.826Z,57.00
2019-04-06T12:22:20.052Z,55.70
2019-04-06T12:25:12.697Z,55.20
2019-04-06T12:28:05.707Z,54.50
2019-04-06T12:30:58.704Z,54.90
2019-04-06T12:33:52.886Z,55.00
2019-04-06T12:37:02.055Z,55.40
2019-04-06T12:40:01.923Z,55.80
2019-04-06T12:42:51.682Z,54.50
2019-04-06T12:45:44.476Z,56.10
2019-04-06T12:48:36.982Z,54.70
2019-04-06T12:51:33.824Z,55.40
2019-04-06T12:54:34.456Z,55.30
2019-04-06T12:57:41.015Z,54.70
2019-04-06T13:00:34.008Z,55.10
2019-04-06T13:03:29.933Z,56.80
2019-04-06T13:06:27.001Z,55.50
2019-04-06T13:09:32.839Z,55.90
2019-04-06T13:12:16.029Z,53.70
2019-04-06T13:14:58.065Z,55.20
2019-04-06T13:18:04.094Z,55.00
2019-04-06T13:20:58.288Z,55.10
2019-04-06T13:23:55.530Z,57.60
2019-04-06T13:26:52.405Z,55.20
2019-04-06T13:29:43.751Z,55.90
2019-04-06T13:32:47.328Z,57.70
2019-04-06T13:35:56.572Z,56.30
2019-04-06T13:38:48.870Z,56.10
2019-04-06T13:41:55.241Z,54.80
2019-04-06T13:44:49.296Z,56.40
2019-04-06T13:47:42.232Z,52.90
2019-04-06T13:50:26.450Z,52.20
2019-04-06T13:53:19.500Z,53.30
2019-04-06T13:56:11.131Z,52.50
2019-04-06T13:59:06.699Z,53.20
2019-04-06T14:02:02.732Z,55.20
2019-04-06T14:05:14.847Z,54.20
2019-04-06T14:08:20.746Z,54.40
2019-04-06T14:11:17.546Z,53.20
2019-04-06T14:14:14.446Z,54.10
2019-04-06T14:17:17.874Z,56.80
2019-04-06T14:20:31.600Z,54.80
2019-04-06T14:23:33.364Z,53.30
2019-04-06T14:26:35.155Z,55.60
2019-04-06T14:29:44.224Z,55.70
2019-04-06T14:32:50.196Z,56.70
2019-04-06T14:35:53.580Z,57.00
2019-04-06T14:38:47.795Z,55.90
2019-04-06T14:41:42.660Z,56.60
2019-04-06T14:44:39.681Z,56.80
2019-04-06T14:47:24.038Z,57.50
2019-04-06T14:50:08.782Z,57.90
2019-04-06T14:52:50.287Z,57.00
2019-04-06T14:55:32.898Z,57.40
2019-04-06T14:58:28.461Z,57.60
2019-04-06T15:01:12.998Z,58.80
2019-04-06T15:04:10.214Z,58.00
2019-04-06T15:06:51.567Z,58.10
2019-04-06T15:09:56.420Z,57.40
2019-04-06T15:12:38.568Z,57.50
2019-04-06T15:15:38.787Z,57.30
2019-04-06T15:18:32.968Z,55.80
2019-04-06T15:21:32.901Z,57.90
2019-04-06T15:24:17.966Z,56.90
2019-04-06T15:27:19.062Z,57.00
2019-04-06T15:30:14.845Z,56.80
2019-04-06T15:33:06.932Z,56.80
2019-04-06T15:35:54.143Z,57.40
2019-04-06T15:38:35.249Z,57.80
2019-04-06T15:41:20.444Z,57.60
2019-04-06T15:44:14.632Z,58.60
2019-04-06T15:47:07.623Z,58.10
2019-04-06T15:50:01.185Z,58.00
2019-04-06T15:52:51.571Z,57.70
2019-04-06T15:55:47.436Z,59.00
2019-04-06T15:58:39.685Z,58.80
2019-04-06T16:01:32.954Z,57.10
2019-04-06T16:04:26.140Z,57.00
2019-04-06T16:07:15.093Z,57.00
2019-04-06T16:10:07.728Z,58.30
2019-04-06T16:13:00.658Z,57.50
2019-04-06T16:15:42.579Z,58.40
2019-04-06T16:18:48.605Z,57.20
2019-04-06T16:21:41.453Z,58.50
2019-04-06T16:24:53.793Z,58.10
2019-04-06T16:27:39.898Z,57.90
2019-04-06T16:30:25.794Z,58.20
2019-04-06T16:33:23.373Z,57.70
2019-04-06T16:36:24.012Z,56.70
2019-04-06T16:39:30.294Z,57.40
2019-04-06T16:42:20.419Z,58.10
2019-04-06T16:45:14.017Z,59.30
2019-04-06T16:48:08.070Z,59.40
2019-04-06T16:51:02.970Z,59.70
2019-04-06T16:54:00.311Z,59.40
2019-04-06T16:57:00.017Z,59.30
2019-04-06T16:59:54.337Z,60.30
2019-04-06T17:02:54.192Z,59.50
2019-04-06T17:05:39.522Z,61.10
2019-04-06T17:08:46.030Z,60.70
2019-04-06T17:11:40.213Z,62.70
2019-04-06T17:14:32.734Z,62.70
2019-04-06T17:17:21.484Z,65.00
2019-04-06T17:20:14.914Z,64.00
2019-04-06T17:23:18.217Z,63.10
2019-04-06T17:26:04.245Z,64.40
2019-04-06T17:29:13.796Z,65.70
2019-04-06T17:32:04.726Z,66.20
2019-04-06T17:34:54.482Z,68.10
2019-04-06T17:37:54.495Z,66.40
2019-04-06T17:40:36.395Z,68.50
2019-04-06T17:43:29.782Z,67.80
2019-04-06T17:46:19.448Z,69.20
2019-04-06T17:49:13.401Z,70.40
2019-04-06T17:52:02.198Z,70.30
2019-04-06T17:54:55.761Z,70.80
2019-04-06T17:57:41.731Z,70.60
2019-04-06T18:00:40.794Z,72.00
2019-04-06T18:03:33.204Z,72.50
2019-04-06T18:06:42.680Z,72.60
2019-04-06T18:09:31.049Z,73.30
2019-04-06T18:12:28.074Z,74.50
2019-04-06T18:15:03.582Z,74.70
2019-04-06T18:17:39.257Z,74.20
2019-04-06T18:20:14.519Z,74.70
2019-04-06T18:22:50.176Z,75.50
2019-04-06T18:25:25.391Z,76.00
2019-04-06T18:28:00.607Z,76.30
2019-04-06T18:30:36.076Z,75.90
2019-04-06T18:33:14.649Z,76.50
2019-04-06T18:35:49.854Z,76.20
2019-04-06T18:38:29.360Z,76.90
2019-04-06T18:41:04.798Z,77.20
2019-04-06T18:43:39.985Z,77.40
2019-04-06T18:46:15.967Z,77.20
2019-04-06T18:48:51.226Z,77.60
2019-04-06T18:51:27.156Z,77.80
2019-04-06T18:54:02.377Z,77.80
2019-04-06T18:56:37.828Z,78.20
2019-04-06T18:59:13.141Z,78.30
2019-04-06T19:01:48.506Z,78.10
2019-04-06T19:04:23.836Z,78.00
2019-04-06T19:06:59.093Z,78.90
2019-04-06T19:09:35.049Z,79.60
2019-04-06T19:12:10.344Z,80.00
2019-04-06T19:14:45.579Z,80.20
2019-04-06T19:17:20.698Z,80.20
2019-04-06T19:19:55.942Z,80.50
2019-04-06T19:22:31.166Z,81.50
2019-04-06T19:25:06.924Z,80.80
2019-04-06T19:27:42.195Z,81.10
2019-04-06T19:30:19.330Z,81.30
2019-04-06T19:32:55.199Z,82.00
2019-04-06T19:35:30.775Z,82.50
2019-04-06T19:38:07.411Z,83.20
2019-04-06T19:40:42.843Z,83.20
2019-04-06T19:43:18.640Z,82.60
2019-04-06T19:45:54.096Z,82.80
2019-04-06T19:48:29.391Z,84.30
2019-04-06T19:51:04.621Z,84.10
2019-04-06T19:53:40.064Z,83.60
2019-04-06T19:56:15.590Z,84.00
2019-04-06T19:58:52.507Z,84.00
2019-04-06T20:01:27.671Z,84.40
2019-04-06T20:04:02.860Z,83.90
2019-04-06T20:06:38.088Z,84.40
2019-04-06T20:09:13.477Z,84.90
2019-04-06T20:11:48.799Z,84.30
2019-04-06T20:14:23.953Z,84.90
2019-04-06T20:16:59.138Z,85.00
2019-04-06T20:19:35.372Z,85.80
2019-04-06T20:22:10.736Z,85.30
2019-04-06T20:24:45.910Z,85.50
2019-04-06T20:27:21.112Z,85.60
2019-04-06T20:29:58.875Z,86.30
2019-04-06T20:32:34.439Z,86.60
2019-04-06T20:35:09.534Z,86.50
2019-04-06T20:37:46.869Z,85.90
2019-04-06T20:40:23.342Z,85.70
2019-04-06T20:42:58.565Z,85.70
2019-04-06T20:45:33.794Z,85.70
2019-04-06T20:48:09.432Z,85.30
2019-04-06T20:50:45.070Z,85.20
2019-04-06T20:53:21.024Z,85.00
2019-04-06T20:55:56.603Z,86.50
2019-04-06T20:58:31.869Z,86.20
2019-04-06T21:01:07.098Z,87.00
2019-04-06T21:03:42.801Z,87.30
2019-04-06T21:06:18.065Z,87.50
2019-04-06T21:08:53.766Z,85.70
2019-04-06T21:11:29.133Z,85.80
2019-04-06T21:14:06.487Z,85.40
2019-04-06T21:16:41.795Z,85.60
2019-04-06T21:19:17.136Z,85.30
2019-04-06T21:21:52.354Z,85.10
2019-04-06T21:24:27.603Z,84.70
2019-04-06T21:27:03.290Z,85.00
2019-04-06T21:29:38.597Z,84.40
2019-04-06T21:32:14.238Z,85.40
2019-04-06T21:34:49.527Z,86.40
2019-04-06T21:37:24.695Z,85.30
2019-04-06T21:39:59.947Z,86.90
2019-04-06T21:42:53.205Z,88.10
2019-04-06T21:45:28.691Z,87.30
2019-04-06T21:48:04.323Z,85.20
2019-04-06T21:50:40.912Z,85.10
2019-04-06T21:53:16.051Z,86.50
2019-04-06T21:56:00.922Z,86.20
2019-04-06T21:58:28.724Z,87.10
2019-04-06T22:01:03.909Z,87.20
2019-04-06T22:03:39.249Z,85.20
2019-04-06T22:06:14.451Z,85.10
2019-04-06T22:08:50.125Z,84.80
2019-04-06T22:11:25.369Z,85.70
2019-04-06T22:14:01.741Z,85.20
2019-04-06T22:16:37.139Z,86.20
2019-04-06T22:19:12.323Z,86.30
2019-04-06T22:21:48.001Z,85.00
2019-04-06T22:24:23.921Z,85.10
2019-04-06T22:27:00.073Z,85.90
2019-04-06T22:29:38.403Z,86.20
2019-04-06T22:32:13.994Z,85.80
2019-04-06T22:34:49.722Z,85.70
2019-04-06T22:37:24.937Z,86.00
2019-04-06T22:40:00.339Z,86.00
2019-04-06T22:42:35.626Z,86.10
2019-04-06T22:45:12.788Z,86.30
2019-04-06T22:47:48.002Z,87.30
2019-04-06T22:50:24.164Z,89.80
2019-04-06T22:52:59.487Z,89.30
2019-04-06T22:55:34.698Z,89.90
2019-04-06T22:58:09.984Z,90.20
2019-04-06T23:00:53.351Z,90.10
2019-04-06T23:03:47.897Z,89.60
2019-04-06T23:06:30.330Z,89.40
2019-04-06T23:09:07.702Z,90.70
2019-04-06T23:11:43.484Z,90.50
2019-04-06T23:14:19.179Z,90.80
2019-04-06T23:16:54.432Z,91.00
2019-04-06T23:19:29.651Z,91.50
2019-04-06T23:22:04.848Z,91.30
2019-04-06T23:24:40.060Z,91.60
2019-04-06T23:27:15.243Z,91.90
2019-04-06T23:29:50.817Z,91.10
2019-04-06T23:32:26.153Z,91.90
2019-04-06T23:35:02.353Z,92.20
2019-04-06T23:37:38.101Z,92.00
2019-04-06T23:40:13.327Z,92.10
2019-04-06T23:42:52.633Z,92.60
2019-04-06T23:45:27.613Z,92.60
2019-04-06T23:48:03.075Z,92.30
2019-04-06T23:50:38.349Z,93.00
2019-04-06T23:53:13.647Z,92.60
2019-04-06T23:55:49.087Z,93.60
2019-04-06T23:58:24.549Z,93.20
